createdAt,value
2023-02-09T00:01:05.462Z,102232.69
2023-02-09T00:04:06.896Z,102236.16
2023-02-09T00:07:08.342Z,102231.06
2023-02-09T00:10:10.022Z,102236.19
2023-02-09T00:13:23.577Z,102244.09
2023-02-09T00:16:26.005Z,102248.41
2023-02-09T00:19:27.907Z,102240.38
2023-02-09T00:22:29.309Z,102241.09
2023-02-09T00:25:30.722Z,102242.16
2023-02-09T00:28:32.403Z,102234.72
2023-02-09T00:31:34.691Z,102234.47
2023-02-09T00:34:37.248Z,102235.03
2023-02-09T00:37:38.622Z,102234.25
2023-02-09T00:40:41.719Z,102231.06
2023-02-09T00:48:30.431Z,102237.56
2023-02-09T00:51:31.820Z,102222.06
2023-02-09T00:54:33.371Z,102216.81
2023-02-09T00:57:35.968Z,102221.75
2023-02-09T01:00:37.691Z,102232.84
2023-02-09T01:03:42.938Z,102218.03
2023-02-09T01:06:44.328Z,102219.88
2023-02-09T01:09:45.792Z,102215.88
2023-02-09T01:12:47.830Z,102220.06
2023-02-09T01:15:49.211Z,102214.81
2023-02-09T01:18:50.911Z,102215.88
2023-02-09T01:21:52.311Z,102215.75
2023-02-09T01:24:53.758Z,102215.63
2023-02-09T01:27:55.239Z,102219.06
2023-02-09T01:30:57.097Z,102215.63
2023-02-09T01:34:00.792Z,102216.41
2023-02-09T01:37:02.364Z,102210.19
2023-02-09T01:40:05.368Z,102206.94
2023-02-09T01:43:06.821Z,102201.97
2023-02-09T01:46:08.243Z,102198.34
2023-02-09T01:49:15.594Z,102201.34
2023-02-09T01:52:21.053Z,102197.72
2023-02-09T01:55:27.151Z,102194.25
2023-02-09T01:58:28.832Z,102194.94
2023-02-09T02:01:30.290Z,102194.84
2023-02-09T02:04:33.539Z,102194.88
2023-02-09T02:07:46.764Z,102190.41
2023-02-09T02:10:48.428Z,102187.00
2023-02-09T02:13:49.983Z,102192.28
2023-02-09T02:17:41.073Z,102185.97
2023-02-09T02:21:21.219Z,102190.16
2023-02-09T02:24:35.603Z,102189.59
2023-02-09T02:27:53.888Z,102183.34
2023-02-09T02:31:39.946Z,102180.78
2023-02-09T02:34:52.134Z,102177.31
2023-02-09T02:38:02.904Z,102174.81
2023-02-09T02:41:16.872Z,102174.63
2023-02-09T02:44:19.452Z,102170.00
2023-02-09T02:47:23.670Z,102165.53
2023-02-09T02:50:31.321Z,102155.19
2023-02-09T02:53:35.723Z,102152.34
2023-02-09T02:56:41.588Z,102143.44
2023-02-09T02:59:57.175Z,102157.47
2023-02-09T03:03:03.856Z,102148.31
2023-02-09T03:06:06.421Z,102154.13
2023-02-09T03:09:08.699Z,102152.16
2023-02-09T03:12:24.553Z,102146.56
2023-02-09T03:15:41.071Z,102149.78
2023-02-09T03:19:01.631Z,102128.31
2023-02-09T03:22:11.778Z,102129.38
2023-02-09T03:25:43.674Z,102127.63
2023-02-09T03:28:46.380Z,102118.19
2023-02-09T03:31:49.017Z,102110.97
2023-02-09T03:34:52.566Z,102126.53
2023-02-09T03:37:53.955Z,102132.47
2023-02-09T03:40:55.384Z,102129.41
2023-02-09T03:44:15.616Z,102141.81
2023-02-09T03:47:17.012Z,102142.09
2023-02-09T03:50:18.436Z,102151.94
2023-02-09T03:53:19.958Z,102147.59
2023-02-09T03:56:24.742Z,102149.91
2023-02-09T03:59:27.043Z,102148.63
2023-02-09T04:02:29.942Z,102145.38
2023-02-09T04:05:31.349Z,102146.13
2023-02-09T04:08:33.163Z,102142.59
2023-02-09T04:11:34.945Z,102152.81
2023-02-09T04:14:36.533Z,102157.28
2023-02-09T04:17:37.934Z,102154.69
2023-02-09T04:20:39.356Z,102156.34
2023-02-09T04:23:40.824Z,102165.69
2023-02-09T04:26:42.241Z,102166.81
2023-02-09T04:29:43.652Z,102168.47
2023-02-09T04:32:45.149Z,102162.28
2023-02-09T04:35:48.723Z,102163.16
2023-02-09T04:38:50.679Z,102170.66
2023-02-09T04:41:52.076Z,102165.31
2023-02-09T04:44:53.500Z,102157.47
2023-02-09T04:47:54.861Z,102167.00
2023-02-09T04:50:56.865Z,102166.88
2023-02-09T04:53:58.259Z,102157.91
2023-02-09T04:57:18.288Z,102165.53
2023-02-09T05:00:19.880Z,102168.97
2023-02-09T05:03:23.046Z,102176.63
2023-02-09T05:06:25.968Z,102177.44
2023-02-09T05:09:27.398Z,102173.97
2023-02-09T05:12:28.836Z,102174.78
2023-02-09T05:15:30.217Z,102175.75
2023-02-09T05:18:31.587Z,102173.97
2023-02-09T05:21:33.041Z,102177.63
2023-02-09T05:24:34.435Z,102171.34
2023-02-09T05:27:35.870Z,102175.63
2023-02-09T05:30:37.571Z,102176.56
2023-02-09T05:33:38.998Z,102180.91
2023-02-09T05:36:40.397Z,102192.41
2023-02-09T05:39:41.776Z,102185.53
2023-02-09T05:42:43.339Z,102193.16
2023-02-09T05:45:45.548Z,102192.97
2023-02-09T05:48:46.963Z,102210.94
2023-02-09T05:51:48.383Z,102204.88
2023-02-09T05:54:50.047Z,102205.81
2023-02-09T05:57:51.422Z,102205.00
2023-02-09T06:00:52.796Z,102193.84
2023-02-09T06:03:54.334Z,102199.84
2023-02-09T06:06:56.262Z,102204.19
2023-02-09T06:09:57.663Z,102209.09
2023-02-09T06:12:59.090Z,102197.75
2023-02-09T06:16:00.587Z,102204.63
2023-02-09T06:19:02.165Z,102206.38
2023-02-09T06:22:03.618Z,102207.41
2023-02-09T06:25:05.393Z,102203.00
2023-02-09T06:28:06.845Z,102213.47
2023-02-09T06:31:09.150Z,102215.91
2023-02-09T06:34:10.586Z,102206.50
2023-02-09T06:37:11.993Z,102205.56
2023-02-09T06:40:13.543Z,102210.69
2023-02-09T06:43:15.590Z,102220.13
2023-02-09T06:46:17.052Z,102213.19
2023-02-09T06:49:18.865Z,102213.06
2023-02-09T06:52:20.533Z,102201.06
2023-02-09T06:55:21.947Z,102201.88
2023-02-09T06:58:23.328Z,102218.16
2023-02-09T07:01:24.760Z,102222.53
2023-02-09T07:04:26.213Z,102224.53
2023-02-09T07:07:27.653Z,102228.69
2023-02-09T07:10:29.091Z,102233.59
2023-02-09T07:13:31.908Z,102232.50
2023-02-09T07:16:33.379Z,102237.69
2023-02-09T07:19:34.934Z,102237.00
2023-02-09T07:22:36.589Z,102238.66
2023-02-09T07:25:38.007Z,102235.22
2023-02-09T07:28:39.409Z,102236.25
2023-02-09T07:31:40.985Z,102247.00
2023-02-09T07:34:42.467Z,102251.56
2023-02-09T07:37:43.853Z,102245.72
2023-02-09T07:40:46.555Z,102245.59
2023-02-09T07:43:48.314Z,102243.56
2023-02-09T07:46:49.774Z,102243.38
2023-02-09T07:49:51.280Z,102251.69
2023-02-09T07:52:54.286Z,102254.50
2023-02-09T07:55:55.974Z,102258.28
2023-02-09T07:58:57.499Z,102253.50
2023-02-09T08:01:59.031Z,102255.84
2023-02-09T08:05:01.472Z,102253.88
2023-02-09T08:08:02.922Z,102258.47
2023-02-09T08:11:05.380Z,102259.81
2023-02-09T08:14:16.610Z,102250.97
2023-02-09T08:17:20.394Z,102256.88
2023-02-09T08:20:25.464Z,102261.56
2023-02-09T08:23:30.790Z,102262.88
2023-02-09T08:26:32.690Z,102259.25
2023-02-09T08:29:34.186Z,102258.13
2023-02-09T08:32:35.719Z,102259.25
2023-02-09T08:35:37.115Z,102260.06
2023-02-09T08:38:38.909Z,102261.63
2023-02-09T08:41:40.318Z,102274.91
2023-02-09T08:44:41.738Z,102274.44
2023-02-09T08:47:43.222Z,102270.22
2023-02-09T08:50:44.602Z,102271.03
2023-02-09T08:53:52.181Z,102268.78
2023-02-09T08:56:54.084Z,102272.03
2023-02-09T08:59:55.548Z,102273.88
2023-02-09T09:02:56.984Z,102276.78
2023-02-09T09:06:02.520Z,102277.09
2023-02-09T09:09:04.160Z,102284.53
2023-02-09T09:12:05.749Z,102280.72
2023-02-09T09:15:07.520Z,102284.09
2023-02-09T09:18:09.650Z,102293.25
2023-02-09T09:21:13.035Z,102293.31
2023-02-09T09:24:14.478Z,102296.88
2023-02-09T09:27:16.150Z,102301.84
2023-02-09T09:30:17.535Z,102294.38
2023-02-09T09:33:18.999Z,102301.22
2023-02-09T09:36:20.634Z,102299.78
2023-02-09T09:39:22.086Z,102308.72
2023-02-09T09:42:34.512Z,102305.50
2023-02-09T09:45:38.590Z,102297.47
2023-02-09T09:48:50.703Z,102302.50
2023-02-09T09:52:00.218Z,102303.69
2023-02-09T09:55:06.645Z,102294.66
2023-02-09T09:58:12.557Z,102292.53
2023-02-09T10:01:15.971Z,102295.06
2023-02-09T10:04:17.645Z,102302.56
2023-02-09T10:07:23.603Z,102304.59
2023-02-09T10:10:56.473Z,102307.97
2023-02-09T10:13:58.009Z,102307.19
2023-02-09T10:16:59.416Z,102304.34
2023-02-09T10:20:04.572Z,102299.47
2023-02-09T10:23:06.000Z,102302.97
2023-02-09T10:26:07.312Z,102299.84
2023-02-09T10:29:23.836Z,102292.53
2023-02-09T10:32:39.820Z,102298.22
2023-02-09T10:35:49.131Z,102295.97
2023-02-09T10:38:51.811Z,102299.47
2023-02-09T10:41:55.471Z,102288.53
2023-02-09T10:45:03.465Z,102285.19
2023-02-09T10:48:10.932Z,102289.41
2023-02-09T10:51:33.597Z,102281.34
2023-02-09T10:54:35.327Z,102274.97
2023-02-09T10:57:38.435Z,102276.13
2023-02-09T11:00:57.691Z,102268.56
2023-02-09T11:04:21.067Z,102263.84
2023-02-09T11:07:27.985Z,102259.94
2023-02-09T11:10:32.096Z,102254.66
2023-02-09T11:13:34.964Z,102242.66
2023-02-09T11:16:47.258Z,102251.72
2023-02-09T11:20:39.928Z,102244.13
2023-02-09T11:24:06.807Z,102246.88
2023-02-09T11:27:43.413Z,102243.72
2023-02-09T11:31:06.414Z,102248.59
2023-02-09T11:34:34.667Z,102247.69
2023-02-09T11:37:46.739Z,102236.47
2023-02-09T11:40:52.875Z,102228.81
2023-02-09T11:43:57.493Z,102221.03
2023-02-09T11:47:05.353Z,102205.53
2023-02-09T11:50:15.071Z,102208.03
2023-02-09T11:53:38.798Z,102195.25
2023-02-09T11:56:44.698Z,102190.16
2023-02-09T11:59:56.347Z,102188.47
2023-02-09T12:03:15.982Z,102186.09
2023-02-09T12:06:22.802Z,102187.97
2023-02-09T12:09:48.697Z,102189.06
2023-02-09T12:13:01.205Z,102183.97
2023-02-09T12:16:11.716Z,102180.50
2023-02-09T12:19:26.322Z,102193.09
2023-02-09T12:22:52.266Z,102199.78
2023-02-09T12:26:01.069Z,102192.97
2023-02-09T12:29:24.042Z,102193.31
2023-02-09T12:32:42.303Z,102190.38
2023-02-09T12:35:57.851Z,102195.59
2023-02-09T12:39:23.867Z,102185.41
2023-02-09T12:42:27.953Z,102193.91
2023-02-09T12:45:37.268Z,102180.88
2023-02-09T12:48:50.592Z,102185.50
2023-02-09T12:51:54.881Z,102187.69
2023-02-09T12:54:56.701Z,102197.47
2023-02-09T12:57:58.347Z,102193.97
2023-02-09T13:00:59.803Z,102196.34
2023-02-09T13:04:05.682Z,102196.88
2023-02-09T13:07:23.001Z,102187.59
2023-02-09T13:10:54.297Z,102186.56
2023-02-09T13:14:04.021Z,102185.03
2023-02-09T13:17:17.503Z,102192.06
2023-02-09T13:20:33.945Z,102180.94
2023-02-09T13:23:59.375Z,102178.16
2023-02-09T13:27:01.378Z,102188.69
2023-02-09T13:30:02.783Z,102174.72
2023-02-09T13:33:21.795Z,102182.56
2023-02-09T13:36:38.562Z,102181.44
2023-02-09T13:39:41.904Z,102183.59
2023-02-09T13:42:57.869Z,102183.84
2023-02-09T13:46:01.409Z,102186.03
2023-02-09T13:49:10.783Z,102182.56
2023-02-09T13:52:15.140Z,102176.88
2023-02-09T13:55:20.854Z,102168.47
2023-02-09T13:58:27.134Z,102169.56
2023-02-09T14:01:32.600Z,102171.59
2023-02-09T14:04:34.813Z,102178.41
2023-02-09T14:07:37.643Z,102183.31
2023-02-09T14:10:42.888Z,102186.84
2023-02-09T14:13:50.053Z,102190.69
2023-02-09T14:17:25.532Z,102200.78
2023-02-09T14:20:27.246Z,102193.97
2023-02-09T14:23:32.782Z,102202.03
2023-02-09T14:26:42.831Z,102196.69
2023-02-09T14:29:48.741Z,102203.97
2023-02-09T14:32:54.720Z,102204.38
2023-02-09T14:35:59.141Z,102202.19
2023-02-09T14:39:20.897Z,102198.59
2023-02-09T14:42:23.268Z,102193.38
2023-02-09T14:45:24.682Z,102200.97
2023-02-09T14:48:28.253Z,102211.13
2023-02-09T14:51:29.647Z,102211.53
2023-02-09T14:54:34.489Z,102210.38
2023-02-09T14:57:38.424Z,102213.13
2023-02-09T15:00:39.854Z,102203.63
2023-02-09T15:03:41.222Z,102214.44
2023-02-09T15:06:45.397Z,102209.81
2023-02-09T15:09:47.080Z,102213.31
2023-02-09T15:12:48.817Z,102216.72
2023-02-09T15:15:50.324Z,102206.22
2023-02-09T15:18:51.765Z,102214.38
2023-02-09T15:22:06.534Z,102208.50
2023-02-09T15:25:12.428Z,102204.03
2023-02-09T15:28:28.134Z,102220.59
2023-02-09T15:31:29.954Z,102213.16
2023-02-09T15:34:31.347Z,102217.25
2023-02-09T15:37:38.281Z,102214.56
2023-02-09T15:41:01.341Z,102211.06
2023-02-09T15:44:38.458Z,102215.25
2023-02-09T15:47:48.632Z,102222.94
2023-02-09T15:50:50.681Z,102224.38
2023-02-09T15:53:57.369Z,102206.94
2023-02-09T15:57:00.919Z,102209.34
2023-02-09T16:00:02.464Z,102205.84
2023-02-09T16:03:14.650Z,102202.28
2023-02-09T16:06:20.320Z,102210.03
2023-02-09T16:09:26.518Z,102205.69
2023-02-09T16:12:27.988Z,102225.50
2023-02-09T16:15:29.358Z,102219.91
2023-02-09T16:18:30.772Z,102236.25
2023-02-09T16:21:33.524Z,102229.22
2023-02-09T16:24:46.252Z,102230.06
2023-02-09T16:27:48.296Z,102234.91
2023-02-09T16:30:57.966Z,102236.53
2023-02-09T16:33:59.473Z,102225.88
2023-02-09T16:37:00.912Z,102226.50
2023-02-09T16:40:02.546Z,102220.66
2023-02-09T16:43:05.627Z,102222.84
2023-02-09T16:46:07.484Z,102230.06
2023-02-09T16:49:25.648Z,102235.13
2023-02-09T16:52:27.692Z,102248.38
2023-02-09T16:55:34.149Z,102253.63
2023-02-09T16:58:36.765Z,102252.91
2023-02-09T17:01:38.392Z,102255.41
2023-02-09T17:04:40.182Z,102259.41
2023-02-09T17:07:53.519Z,102260.00
2023-02-09T17:10:58.346Z,102264.84
2023-02-09T17:13:59.767Z,102268.50
2023-02-09T17:17:04.254Z,102272.31
2023-02-09T17:20:06.121Z,102278.53
2023-02-09T17:23:10.005Z,102284.31
2023-02-09T17:26:13.082Z,102288.22
2023-02-09T17:29:14.486Z,102295.56
2023-02-09T17:32:16.030Z,102285.91
2023-02-09T17:35:33.171Z,102298.28
2023-02-09T17:38:41.985Z,102292.31
2023-02-09T17:41:45.215Z,102286.31
2023-02-09T17:44:46.974Z,102287.06
2023-02-09T17:47:53.365Z,102295.16
2023-02-09T17:50:58.100Z,102296.78
2023-02-09T17:54:00.280Z,102300.13
2023-02-09T17:57:01.657Z,102298.06
2023-02-09T18:00:03.659Z,102306.19
2023-02-09T18:03:06.040Z,102289.56
2023-02-09T18:06:07.530Z,102299.22
2023-02-09T18:09:12.120Z,102296.56
2023-02-09T18:12:21.889Z,102303.25
2023-02-09T18:15:26.932Z,102304.16
2023-02-09T18:18:28.303Z,102302.94
2023-02-09T18:21:30.388Z,102317.59
2023-02-09T18:24:34.303Z,102311.72
2023-02-09T18:27:35.690Z,102312.88
2023-02-09T18:30:39.214Z,102318.16
2023-02-09T18:33:40.821Z,102318.28
2023-02-09T18:36:42.409Z,102320.59
2023-02-09T18:39:46.250Z,102328.00
2023-02-09T18:42:48.008Z,102335.69
2023-02-09T18:45:49.568Z,102339.78
2023-02-09T18:48:51.663Z,102339.63
2023-02-09T18:51:53.131Z,102342.47
2023-02-09T18:54:54.585Z,102345.75
2023-02-09T18:57:58.321Z,102356.13
2023-02-09T19:01:00.009Z,102355.59
2023-02-09T19:04:01.396Z,102367.41
2023-02-09T19:07:03.434Z,102370.13
2023-02-09T19:10:08.185Z,102369.63
2023-02-09T19:13:09.900Z,102373.56
2023-02-09T19:16:12.681Z,102376.97
2023-02-09T19:19:16.018Z,102386.22
2023-02-09T19:22:20.200Z,102389.69
2023-02-09T19:25:23.496Z,102385.22
2023-02-09T19:28:25.026Z,102390.72
2023-02-09T19:31:26.538Z,102395.25
2023-02-09T19:34:31.229Z,102389.06
2023-02-09T19:37:32.731Z,102394.25
2023-02-09T19:40:40.738Z,102389.84
2023-02-09T19:43:42.129Z,102402.19
2023-02-09T19:46:43.979Z,102406.75
2023-02-09T19:49:46.338Z,102402.66
2023-02-09T19:52:49.004Z,102397.88
2023-02-09T19:55:51.905Z,102392.19
2023-02-09T19:58:53.415Z,102402.91
2023-02-09T20:01:54.866Z,102400.31
2023-02-09T20:04:56.390Z,102404.41
2023-02-09T20:07:58.019Z,102399.44
2023-02-09T20:10:59.410Z,102398.78
2023-02-09T20:17:07.131Z,102401.69
2023-02-09T20:20:08.887Z,102395.88
2023-02-09T20:23:10.573Z,102395.03
2023-02-09T20:26:26.701Z,102395.97
2023-02-09T20:29:28.119Z,102394.97
2023-02-09T20:32:30.008Z,102403.97
2023-02-09T20:35:31.390Z,102398.16
2023-02-09T20:38:33.480Z,102416.31
2023-02-09T20:41:34.872Z,102418.34
2023-02-09T20:44:55.490Z,102414.91
2023-02-09T20:47:56.907Z,102412.66
2023-02-09T20:50:58.386Z,102417.50
2023-02-09T20:53:59.799Z,102430.59
2023-02-09T20:57:01.242Z,102432.94
2023-02-09T21:00:08.981Z,102437.03
2023-02-09T21:03:11.419Z,102439.31
2023-02-09T21:06:13.191Z,102448.09
2023-02-09T21:09:15.331Z,102446.13
2023-02-09T21:12:16.735Z,102448.75
2023-02-09T21:15:18.152Z,102454.63
2023-02-09T21:18:21.358Z,102461.59
2023-02-09T21:21:23.137Z,102453.00
2023-02-09T21:24:24.553Z,102463.81
2023-02-09T21:27:26.181Z,102460.13
2023-02-09T21:30:28.201Z,102456.72
2023-02-09T21:33:29.582Z,102469.94
2023-02-09T21:36:30.973Z,102469.13
2023-02-09T21:39:32.379Z,102472.38
2023-02-09T21:42:35.501Z,102475.59
2023-02-09T21:45:39.261Z,102482.69
2023-02-09T21:48:40.776Z,102486.16
2023-02-09T21:51:42.549Z,102492.97
2023-02-09T21:54:43.934Z,102486.25
2023-02-09T21:57:45.404Z,102490.25
2023-02-09T22:00:47.086Z,102491.06
2023-02-09T22:03:49.969Z,102490.38
2023-02-09T22:06:51.554Z,102489.16
2023-02-09T22:09:52.961Z,102489.03
2023-02-09T22:12:54.377Z,102485.22
2023-02-09T22:15:56.336Z,102474.72
2023-02-09T22:18:59.341Z,102484.66
2023-02-09T22:22:01.516Z,102478.56
2023-02-09T22:25:03.044Z,102479.09
2023-02-09T22:28:05.481Z,102478.75
2023-02-09T22:31:12.730Z,102485.09
2023-02-09T22:34:14.229Z,102481.94
2023-02-09T22:37:15.609Z,102473.09
2023-02-09T22:40:17.074Z,102474.56
2023-02-09T22:43:18.453Z,102473.75
2023-02-09T22:46:21.782Z,102477.16
2023-02-09T22:49:23.290Z,102478.41
2023-02-09T22:52:24.730Z,102479.34
2023-02-09T22:55:26.172Z,102496.19
2023-02-09T22:58:27.621Z,102493.56
2023-02-09T23:01:29.592Z,102503.03
2023-02-09T23:04:32.745Z,102500.63
2023-02-09T23:07:34.117Z,102500.75
2023-02-09T23:10:35.637Z,102495.47
2023-02-09T23:13:37.500Z,102503.94
2023-02-09T23:16:41.030Z,102509.84
2023-02-09T23:19:42.410Z,102517.69
2023-02-09T23:22:43.785Z,102527.59
2023-02-09T23:25:45.315Z,102517.41
2023-02-09T23:28:48.158Z,102506.34
2023-02-09T23:31:50.093Z,102509.03
2023-02-09T23:34:51.487Z,102502.16
2023-02-09T23:37:52.864Z,102504.88
2023-02-09T23:40:54.252Z,102502.41
2023-02-09T23:43:56.384Z,102498.06
2023-02-09T23:46:57.861Z,102509.19
2023-02-09T23:49:59.273Z,102509.91
2023-02-09T23:53:00.660Z,102511.31
2023-02-09T23:56:04.923Z,102513.25
2023-02-09T23:59:09.517Z,102523.13
